sensor_id;sensor_type;location;lat;lon;timestamp;P1;durP1;ratioP1;P2;durP2;ratioP2
37407;SDS011;24866;50.248;8.252;2023-12-29T00:01:08;1.75;;;0.82;;
37407;SDS011;24866;50.248;8.252;2023-12-29T00:03:39;2.17;;;0.95;;
37407;SDS011;24866;50.248;8.252;2023-12-29T00:06:08;1.50;;;0.70;;
37407;SDS011;24866;50.248;8.252;2023-12-29T00:08:38;1.63;;;0.70;;
37407;SDS011;24866;50.248;8.252;2023-12-29T00:11:15;1.40;;;0.60;;
37407;SDS011;24866;50.248;8.252;2023-12-29T00:13:46;1.75;;;0.93;;
37407;SDS011;24866;50.248;8.252;2023-12-29T00:16:18;1.63;;;1.00;;
37407;SDS011;24866;50.248;8.252;2023-12-29T00:18:48;2.13;;;0.88;;
37407;SDS011;24866;50.248;8.252;2023-12-29T00:21:18;3.55;;;1.10;;
37407;SDS011;24866;50.248;8.252;2023-12-29T00:23:49;2.65;;;1.40;;
37407;SDS011;24866;50.248;8.252;2023-12-29T00:26:19;2.00;;;1.20;;
37407;SDS011;24866;50.248;8.252;2023-12-29T00:28:49;4.40;;;2.47;;
37407;SDS011;24866;50.248;8.252;2023-12-29T00:31:20;5.03;;;2.70;;
37407;SDS011;24866;50.248;8.252;2023-12-29T00:33:50;3.85;;;1.88;;
37407;SDS011;24866;50.248;8.252;2023-12-29T00:36:21;3.72;;;1.42;;
37407;SDS011;24866;50.248;8.252;2023-12-29T00:38:51;1.67;;;0.90;;
37407;SDS011;24866;50.248;8.252;2023-12-29T00:41:21;1.45;;;0.80;;
37407;SDS011;24866;50.248;8.252;2023-12-29T00:43:51;3.63;;;1.00;;
37407;SDS011;24866;50.248;8.252;2023-12-29T00:46:22;2.30;;;1.00;;
37407;SDS011;24866;50.248;8.252;2023-12-29T00:48:52;2.28;;;1.00;;
37407;SDS011;24866;50.248;8.252;2023-12-29T00:51:22;3.72;;;1.30;;
37407;SDS011;24866;50.248;8.252;2023-12-29T00:53:52;2.83;;;0.75;;
37407;SDS011;24866;50.248;8.252;2023-12-29T00:56:22;2.00;;;1.00;;
37407;SDS011;24866;50.248;8.252;2023-12-29T00:58:52;2.20;;;0.70;;
37407;SDS011;24866;50.248;8.252;2023-12-29T01:01:24;1.83;;;0.88;;
37407;SDS011;24866;50.248;8.252;2023-12-29T01:03:54;2.53;;;0.90;;
37407;SDS011;24866;50.248;8.252;2023-12-29T01:06:23;1.27;;;0.73;;
37407;SDS011;24866;50.248;8.252;2023-12-29T01:08:53;1.45;;;0.57;;
37407;SDS011;24866;50.248;8.252;2023-12-29T01:11:24;2.33;;;0.90;;
37407;SDS011;24866;50.248;8.252;2023-12-29T01:13:53;2.58;;;0.98;;
37407;SDS011;24866;50.248;8.252;2023-12-29T01:16:25;3.10;;;0.98;;
37407;SDS011;24866;50.248;8.252;2023-12-29T01:18:55;3.95;;;0.88;;
37407;SDS011;24866;50.248;8.252;2023-12-29T01:21:25;2.22;;;0.90;;
37407;SDS011;24866;50.248;8.252;2023-12-29T01:23:55;3.35;;;1.20;;
37407;SDS011;24866;50.248;8.252;2023-12-29T01:26:25;2.42;;;1.00;;
37407;SDS011;24866;50.248;8.252;2023-12-29T01:28:55;1.63;;;0.95;;
37407;SDS011;24866;50.248;8.252;2023-12-29T01:31:29;2.63;;;0.82;;
37407;SDS011;24866;50.248;8.252;2023-12-29T01:33:59;2.05;;;0.82;;
37407;SDS011;24866;50.248;8.252;2023-12-29T01:36:29;5.20;;;0.90;;
37407;SDS011;24866;50.248;8.252;2023-12-29T01:38:59;3.22;;;0.90;;
37407;SDS011;24866;50.248;8.252;2023-12-29T01:41:31;3.50;;;1.17;;
37407;SDS011;24866;50.248;8.252;2023-12-29T01:44:20;1.75;;;0.90;;
37407;SDS011;24866;50.248;8.252;2023-12-29T01:46:53;3.05;;;0.80;;
37407;SDS011;24866;50.248;8.252;2023-12-29T01:49:24;2.92;;;0.98;;
37407;SDS011;24866;50.248;8.252;2023-12-29T01:51:55;3.72;;;1.10;;
37407;SDS011;24866;50.248;8.252;2023-12-29T01:54:27;3.20;;;1.08;;
37407;SDS011;24866;50.248;8.252;2023-12-29T01:57:00;3.80;;;1.05;;
37407;SDS011;24866;50.248;8.252;2023-12-29T01:59:30;3.03;;;0.70;;
37407;SDS011;24866;50.248;8.252;2023-12-29T02:02:02;5.57;;;1.27;;
37407;SDS011;24866;50.248;8.252;2023-12-29T02:04:32;4.38;;;0.90;;
37407;SDS011;24866;50.248;8.252;2023-12-29T02:07:04;4.57;;;1.20;;
37407;SDS011;24866;50.248;8.252;2023-12-29T02:09:34;7.43;;;1.20;;
37407;SDS011;24866;50.248;8.252;2023-12-29T02:12:05;4.13;;;1.00;;
37407;SDS011;24866;50.248;8.252;2023-12-29T02:14:35;2.85;;;1.00;;
37407;SDS011;24866;50.248;8.252;2023-12-29T02:17:10;3.72;;;1.00;;
37407;SDS011;24866;50.248;8.252;2023-12-29T02:19:49;8.07;;;1.20;;
37407;SDS011;24866;50.248;8.252;2023-12-29T02:22:20;4.70;;;0.85;;
37407;SDS011;24866;50.248;8.252;2023-12-29T02:24:52;6.47;;;1.35;;
37407;SDS011;24866;50.248;8.252;2023-12-29T02:27:24;7.03;;;1.17;;
37407;SDS011;24866;50.248;8.252;2023-12-29T02:30:05;12.18;;;1.80;;
37407;SDS011;24866;50.248;8.252;2023-12-29T02:32:38;3.10;;;1.00;;
37407;SDS011;24866;50.248;8.252;2023-12-29T02:35:10;4.00;;;1.17;;
37407;SDS011;24866;50.248;8.252;2023-12-29T02:40:14;2.50;;;0.90;;
37407;SDS011;24866;50.248;8.252;2023-12-29T02:42:44;4.43;;;1.25;;
37407;SDS011;24866;50.248;8.252;2023-12-29T02:45:16;3.78;;;1.10;;
37407;SDS011;24866;50.248;8.252;2023-12-29T02:47:46;4.60;;;1.08;;
37407;SDS011;24866;50.248;8.252;2023-12-29T02:50:17;6.90;;;1.40;;
37407;SDS011;24866;50.248;8.252;2023-12-29T02:52:47;3.47;;;1.20;;
37407;SDS011;24866;50.248;8.252;2023-12-29T02:55:18;4.05;;;1.00;;
37407;SDS011;24866;50.248;8.252;2023-12-29T02:57:51;3.75;;;0.98;;
37407;SDS011;24866;50.248;8.252;2023-12-29T03:00:21;3.13;;;0.98;;
37407;SDS011;24866;50.248;8.252;2023-12-29T03:02:51;5.38;;;0.90;;
37407;SDS011;24866;50.248;8.252;2023-12-29T03:05:21;3.22;;;1.08;;
37407;SDS011;24866;50.248;8.252;2023-12-29T03:07:51;5.13;;;0.90;;
37407;SDS011;24866;50.248;8.252;2023-12-29T03:10:22;3.08;;;0.82;;
37407;SDS011;24866;50.248;8.252;2023-12-29T03:12:52;6.93;;;1.48;;
37407;SDS011;24866;50.248;8.252;2023-12-29T03:15:22;3.53;;;1.33;;
37407;SDS011;24866;50.248;8.252;2023-12-29T03:17:51;6.43;;;1.40;;
37407;SDS011;24866;50.248;8.252;2023-12-29T03:20:21;5.25;;;1.45;;
37407;SDS011;24866;50.248;8.252;2023-12-29T03:22:51;5.50;;;1.17;;
37407;SDS011;24866;50.248;8.252;2023-12-29T03:25:22;7.05;;;1.23;;
37407;SDS011;24866;50.248;8.252;2023-12-29T03:27:52;4.38;;;1.10;;
37407;SDS011;24866;50.248;8.252;2023-12-29T03:30:22;4.35;;;0.98;;
37407;SDS011;24866;50.248;8.252;2023-12-29T03:32:52;5.20;;;0.95;;
37407;SDS011;24866;50.248;8.252;2023-12-29T03:35:22;6.70;;;1.42;;
37407;SDS011;24866;50.248;8.252;2023-12-29T03:37:51;5.72;;;1.45;;
37407;SDS011;24866;50.248;8.252;2023-12-29T03:40:23;4.85;;;1.20;;
37407;SDS011;24866;50.248;8.252;2023-12-29T03:42:52;4.65;;;1.10;;
37407;SDS011;24866;50.248;8.252;2023-12-29T03:45:22;3.88;;;1.02;;
37407;SDS011;24866;50.248;8.252;2023-12-29T03:47:52;3.85;;;1.33;;
37407;SDS011;24866;50.248;8.252;2023-12-29T03:50:22;5.20;;;1.15;;
37407;SDS011;24866;50.248;8.252;2023-12-29T03:52:52;4.88;;;1.35;;
37407;SDS011;24866;50.248;8.252;2023-12-29T03:55:23;5.32;;;1.10;;
37407;SDS011;24866;50.248;8.252;2023-12-29T03:57:53;3.60;;;1.00;;
37407;SDS011;24866;50.248;8.252;2023-12-29T04:00:23;2.58;;;0.90;;
37407;SDS011;24866;50.248;8.252;2023-12-29T04:02:53;2.33;;;1.00;;
37407;SDS011;24866;50.248;8.252;2023-12-29T04:05:23;3.88;;;1.20;;
37407;SDS011;24866;50.248;8.252;2023-12-29T04:07:53;4.07;;;1.25;;
37407;SDS011;24866;50.248;8.252;2023-12-29T04:10:24;2.90;;;0.75;;
37407;SDS011;24866;50.248;8.252;2023-12-29T04:12:54;2.83;;;0.90;;
37407;SDS011;24866;50.248;8.252;2023-12-29T04:15:24;4.00;;;1.13;;
37407;SDS011;24866;50.248;8.252;2023-12-29T04:17:54;3.03;;;1.02;;
37407;SDS011;24866;50.248;8.252;2023-12-29T04:20:24;6.47;;;2.13;;
37407;SDS011;24866;50.248;8.252;2023-12-29T04:22:54;2.17;;;0.85;;
37407;SDS011;24866;50.248;8.252;2023-12-29T04:25:25;2.15;;;0.85;;
37407;SDS011;24866;50.248;8.252;2023-12-29T04:27:55;3.55;;;0.88;;
37407;SDS011;24866;50.248;8.252;2023-12-29T04:30:25;5.50;;;1.02;;
37407;SDS011;24866;50.248;8.252;2023-12-29T04:32:55;6.22;;;1.23;;
37407;SDS011;24866;50.248;8.252;2023-12-29T04:35:25;3.70;;;1.08;;
37407;SDS011;24866;50.248;8.252;2023-12-29T04:37:55;5.78;;;1.02;;
37407;SDS011;24866;50.248;8.252;2023-12-29T04:40:27;1.95;;;1.00;;
37407;SDS011;24866;50.248;8.252;2023-12-29T04:42:57;3.25;;;1.35;;
37407;SDS011;24866;50.248;8.252;2023-12-29T04:45:27;4.22;;;1.10;;
37407;SDS011;24866;50.248;8.252;2023-12-29T04:47:57;4.22;;;1.42;;
37407;SDS011;24866;50.248;8.252;2023-12-29T04:50:27;4.68;;;1.20;;
37407;SDS011;24866;50.248;8.252;2023-12-29T04:52:56;3.88;;;0.95;;
37407;SDS011;24866;50.248;8.252;2023-12-29T04:55:28;4.15;;;1.38;;
37407;SDS011;24866;50.248;8.252;2023-12-29T04:57:57;3.55;;;1.00;;
37407;SDS011;24866;50.248;8.252;2023-12-29T05:00:27;4.78;;;1.35;;
37407;SDS011;24866;50.248;8.252;2023-12-29T05:02:57;3.60;;;1.20;;
37407;SDS011;24866;50.248;8.252;2023-12-29T05:05:27;7.18;;;1.77;;
37407;SDS011;24866;50.248;8.252;2023-12-29T05:07:57;3.38;;;1.27;;
37407;SDS011;24866;50.248;8.252;2023-12-29T05:10:28;3.70;;;0.80;;
37407;SDS011;24866;50.248;8.252;2023-12-29T05:12:58;5.93;;;1.00;;
37407;SDS011;24866;50.248;8.252;2023-12-29T05:15:28;5.38;;;1.40;;
37407;SDS011;24866;50.248;8.252;2023-12-29T05:17:58;3.50;;;1.10;;
37407;SDS011;24866;50.248;8.252;2023-12-29T05:20:28;2.45;;;0.93;;
37407;SDS011;24866;50.248;8.252;2023-12-29T05:22:58;4.20;;;1.27;;
37407;SDS011;24866;50.248;8.252;2023-12-29T05:25:29;4.57;;;0.93;;
37407;SDS011;24866;50.248;8.252;2023-12-29T05:27:59;5.43;;;1.40;;
37407;SDS011;24866;50.248;8.252;2023-12-29T05:30:29;5.22;;;1.15;;
37407;SDS011;24866;50.248;8.252;2023-12-29T05:33:00;5.50;;;1.00;;
37407;SDS011;24866;50.248;8.252;2023-12-29T05:35:30;4.00;;;0.90;;
37407;SDS011;24866;50.248;8.252;2023-12-29T05:38:00;4.85;;;1.10;;
37407;SDS011;24866;50.248;8.252;2023-12-29T05:40:31;6.60;;;1.40;;
37407;SDS011;24866;50.248;8.252;2023-12-29T05:43:01;5.75;;;0.85;;
37407;SDS011;24866;50.248;8.252;2023-12-29T05:45:31;7.15;;;1.00;;
37407;SDS011;24866;50.248;8.252;2023-12-29T05:48:01;6.00;;;1.10;;
37407;SDS011;24866;50.248;8.252;2023-12-29T05:50:31;4.25;;;1.38;;
37407;SDS011;24866;50.248;8.252;2023-12-29T05:53:01;2.75;;;1.13;;
37407;SDS011;24866;50.248;8.252;2023-12-29T05:55:33;4.53;;;1.00;;
37407;SDS011;24866;50.248;8.252;2023-12-29T05:58:04;2.25;;;0.90;;
37407;SDS011;24866;50.248;8.252;2023-12-29T06:00:34;3.13;;;0.98;;
37407;SDS011;24866;50.248;8.252;2023-12-29T06:03:04;3.65;;;1.08;;
37407;SDS011;24866;50.248;8.252;2023-12-29T06:05:34;6.13;;;1.20;;
37407;SDS011;24866;50.248;8.252;2023-12-29T06:08:05;6.63;;;0.98;;
37407;SDS011;24866;50.248;8.252;2023-12-29T06:10:37;3.50;;;1.27;;
37407;SDS011;24866;50.248;8.252;2023-12-29T06:13:07;4.93;;;0.93;;
37407;SDS011;24866;50.248;8.252;2023-12-29T06:15:37;5.70;;;1.35;;
37407;SDS011;24866;50.248;8.252;2023-12-29T06:18:07;5.43;;;1.52;;
37407;SDS011;24866;50.248;8.252;2023-12-29T06:20:37;4.90;;;1.10;;
37407;SDS011;24866;50.248;8.252;2023-12-29T06:23:07;3.90;;;1.33;;
37407;SDS011;24866;50.248;8.252;2023-12-29T06:25:38;5.72;;;1.20;;
37407;SDS011;24866;50.248;8.252;2023-12-29T06:28:09;5.03;;;0.93;;
37407;SDS011;24866;50.248;8.252;2023-12-29T06:30:39;5.53;;;1.30;;
37407;SDS011;24866;50.248;8.252;2023-12-29T06:33:09;3.42;;;1.00;;
37407;SDS011;24866;50.248;8.252;2023-12-29T06:35:39;6.72;;;0.95;;
37407;SDS011;24866;50.248;8.252;2023-12-29T06:38:09;5.55;;;1.52;;
37407;SDS011;24866;50.248;8.252;2023-12-29T06:40:40;3.85;;;0.90;;
37407;SDS011;24866;50.248;8.252;2023-12-29T06:43:10;5.75;;;1.10;;
37407;SDS011;24866;50.248;8.252;2023-12-29T06:45:40;3.75;;;1.20;;
37407;SDS011;24866;50.248;8.252;2023-12-29T06:48:10;5.82;;;0.90;;
37407;SDS011;24866;50.248;8.252;2023-12-29T06:50:40;3.83;;;1.10;;
37407;SDS011;24866;50.248;8.252;2023-12-29T06:53:10;3.60;;;1.17;;
37407;SDS011;24866;50.248;8.252;2023-12-29T06:55:41;2.75;;;1.00;;
37407;SDS011;24866;50.248;8.252;2023-12-29T06:58:11;3.80;;;1.38;;
37407;SDS011;24866;50.248;8.252;2023-12-29T07:00:41;5.07;;;1.17;;
37407;SDS011;24866;50.248;8.252;2023-12-29T07:03:12;2.75;;;0.90;;
37407;SDS011;24866;50.248;8.252;2023-12-29T07:05:43;3.65;;;0.95;;
37407;SDS011;24866;50.248;8.252;2023-12-29T07:08:13;4.65;;;0.80;;
37407;SDS011;24866;50.248;8.252;2023-12-29T07:10:45;4.00;;;0.68;;
37407;SDS011;24866;50.248;8.252;2023-12-29T07:13:18;2.38;;;0.65;;
37407;SDS011;24866;50.248;8.252;2023-12-29T07:15:48;4.30;;;0.98;;
37407;SDS011;24866;50.248;8.252;2023-12-29T07:18:18;2.85;;;0.77;;
37407;SDS011;24866;50.248;8.252;2023-12-29T07:20:48;2.05;;;0.88;;
37407;SDS011;24866;50.248;8.252;2023-12-29T07:23:18;4.20;;;1.58;;
37407;SDS011;24866;50.248;8.252;2023-12-29T07:25:49;3.45;;;1.00;;
37407;SDS011;24866;50.248;8.252;2023-12-29T07:28:19;6.32;;;1.65;;
37407;SDS011;24866;50.248;8.252;2023-12-29T07:30:49;3.85;;;1.08;;
37407;SDS011;24866;50.248;8.252;2023-12-29T07:33:19;4.53;;;1.27;;
37407;SDS011;24866;50.248;8.252;2023-12-29T07:35:49;4.68;;;1.70;;
37407;SDS011;24866;50.248;8.252;2023-12-29T07:38:19;3.42;;;0.95;;
37407;SDS011;24866;50.248;8.252;2023-12-29T07:40:51;4.10;;;0.90;;
37407;SDS011;24866;50.248;8.252;2023-12-29T07:43:23;4.05;;;0.90;;
37407;SDS011;24866;50.248;8.252;2023-12-29T07:45:53;3.33;;;0.93;;
37407;SDS011;24866;50.248;8.252;2023-12-29T07:48:23;4.05;;;1.48;;
37407;SDS011;24866;50.248;8.252;2023-12-29T07:50:53;5.40;;;1.58;;
37407;SDS011;24866;50.248;8.252;2023-12-29T07:53:33;4.97;;;1.63;;
37407;SDS011;24866;50.248;8.252;2023-12-29T07:56:05;4.68;;;1.45;;
37407;SDS011;24866;50.248;8.252;2023-12-29T07:58:35;3.30;;;1.02;;
37407;SDS011;24866;50.248;8.252;2023-12-29T08:01:05;3.85;;;1.35;;
37407;SDS011;24866;50.248;8.252;2023-12-29T08:03:35;6.88;;;1.50;;
37407;SDS011;24866;50.248;8.252;2023-12-29T08:06:05;3.50;;;1.50;;
37407;SDS011;24866;50.248;8.252;2023-12-29T08:08:35;6.30;;;2.00;;
37407;SDS011;24866;50.248;8.252;2023-12-29T08:11:12;4.93;;;1.85;;
37407;SDS011;24866;50.248;8.252;2023-12-29T08:13:43;5.00;;;1.88;;
37407;SDS011;24866;50.248;8.252;2023-12-29T08:16:13;5.35;;;1.20;;
37407;SDS011;24866;50.248;8.252;2023-12-29T08:18:45;4.30;;;1.10;;
37407;SDS011;24866;50.248;8.252;2023-12-29T08:21:16;3.25;;;1.60;;
37407;SDS011;24866;50.248;8.252;2023-12-29T08:23:47;3.88;;;1.50;;
37407;SDS011;24866;50.248;8.252;2023-12-29T08:26:19;6.68;;;1.85;;
37407;SDS011;24866;50.248;8.252;2023-12-29T08:28:49;3.47;;;1.30;;
37407;SDS011;24866;50.248;8.252;2023-12-29T08:31:19;4.68;;;1.45;;
37407;SDS011;24866;50.248;8.252;2023-12-29T08:33:48;3.72;;;1.60;;
37407;SDS011;24866;50.248;8.252;2023-12-29T08:36:19;2.17;;;0.85;;
37407;SDS011;24866;50.248;8.252;2023-12-29T08:38:50;2.63;;;1.33;;
37407;SDS011;24866;50.248;8.252;2023-12-29T08:41:22;5.07;;;0.90;;
37407;SDS011;24866;50.248;8.252;2023-12-29T08:43:52;3.90;;;1.13;;
37407;SDS011;24866;50.248;8.252;2023-12-29T08:46:22;2.83;;;0.77;;
37407;SDS011;24866;50.248;8.252;2023-12-29T08:48:52;2.38;;;0.85;;
37407;SDS011;24866;50.248;8.252;2023-12-29T08:51:22;3.25;;;0.73;;
37407;SDS011;24866;50.248;8.252;2023-12-29T08:53:52;4.63;;;0.82;;
37407;SDS011;24866;50.248;8.252;2023-12-29T08:56:23;3.75;;;0.80;;
37407;SDS011;24866;50.248;8.252;2023-12-29T08:58:53;1.67;;;0.50;;
37407;SDS011;24866;50.248;8.252;2023-12-29T09:01:23;1.75;;;0.70;;
37407;SDS011;24866;50.248;8.252;2023-12-29T09:03:53;6.97;;;0.95;;
37407;SDS011;24866;50.248;8.252;2023-12-29T09:06:23;2.72;;;0.80;;
37407;SDS011;24866;50.248;8.252;2023-12-29T09:08:53;5.65;;;1.30;;
37407;SDS011;24866;50.248;8.252;2023-12-29T09:11:24;2.88;;;1.38;;
37407;SDS011;24866;50.248;8.252;2023-12-29T09:13:54;3.63;;;1.10;;
37407;SDS011;24866;50.248;8.252;2023-12-29T09:16:24;2.72;;;0.70;;
37407;SDS011;24866;50.248;8.252;2023-12-29T09:18:54;3.92;;;0.77;;
37407;SDS011;24866;50.248;8.252;2023-12-29T09:21:24;4.43;;;1.75;;
37407;SDS011;24866;50.248;8.252;2023-12-29T09:23:54;3.65;;;0.90;;
37407;SDS011;24866;50.248;8.252;2023-12-29T09:26:25;1.80;;;0.60;;
37407;SDS011;24866;50.248;8.252;2023-12-29T09:28:55;4.70;;;1.05;;
37407;SDS011;24866;50.248;8.252;2023-12-29T09:31:25;4.07;;;1.00;;
37407;SDS011;24866;50.248;8.252;2023-12-29T09:33:55;3.55;;;0.98;;
37407;SDS011;24866;50.248;8.252;2023-12-29T09:36:25;7.88;;;1.10;;
37407;SDS011;24866;50.248;8.252;2023-12-29T09:38:55;3.95;;;1.15;;
37407;SDS011;24866;50.248;8.252;2023-12-29T09:41:27;7.55;;;1.25;;
37407;SDS011;24866;50.248;8.252;2023-12-29T09:44:00;5.43;;;1.20;;
37407;SDS011;24866;50.248;8.252;2023-12-29T09:46:33;4.47;;;0.90;;
37407;SDS011;24866;50.248;8.252;2023-12-29T09:49:03;3.58;;;1.20;;
37407;SDS011;24866;50.248;8.252;2023-12-29T09:51:33;4.05;;;1.13;;
37407;SDS011;24866;50.248;8.252;2023-12-29T09:54:04;4.15;;;1.20;;
37407;SDS011;24866;50.248;8.252;2023-12-29T09:56:35;6.93;;;1.27;;
37407;SDS011;24866;50.248;8.252;2023-12-29T09:59:05;7.18;;;2.53;;
37407;SDS011;24866;50.248;8.252;2023-12-29T10:01:37;5.35;;;2.15;;
37407;SDS011;24866;50.248;8.252;2023-12-29T10:04:10;7.07;;;2.03;;
37407;SDS011;24866;50.248;8.252;2023-12-29T10:06:41;4.68;;;1.63;;
37407;SDS011;24866;50.248;8.252;2023-12-29T10:09:14;5.90;;;2.08;;
37407;SDS011;24866;50.248;8.252;2023-12-29T10:11:49;3.45;;;1.20;;
37407;SDS011;24866;50.248;8.252;2023-12-29T10:14:22;4.00;;;1.20;;
37407;SDS011;24866;50.248;8.252;2023-12-29T10:17:01;4.35;;;1.02;;
37407;SDS011;24866;50.248;8.252;2023-12-29T10:19:37;5.78;;;1.35;;
37407;SDS011;24866;50.248;8.252;2023-12-29T10:22:11;1.83;;;0.75;;
37407;SDS011;24866;50.248;8.252;2023-12-29T10:24:47;4.43;;;0.95;;
37407;SDS011;24866;50.248;8.252;2023-12-29T10:27:20;3.00;;;0.83;;
37407;SDS011;24866;50.248;8.252;2023-12-29T10:29:51;2.50;;;0.73;;
37407;SDS011;24866;50.248;8.252;2023-12-29T10:32:21;2.92;;;0.98;;
37407;SDS011;24866;50.248;8.252;2023-12-29T10:34:51;2.63;;;0.70;;
37407;SDS011;24866;50.248;8.252;2023-12-29T10:37:37;3.85;;;0.90;;
37407;SDS011;24866;50.248;8.252;2023-12-29T10:40:07;4.22;;;1.35;;
37407;SDS011;24866;50.248;8.252;2023-12-29T10:42:41;3.50;;;0.90;;
37407;SDS011;24866;50.248;8.252;2023-12-29T10:45:21;2.88;;;0.73;;
37407;SDS011;24866;50.248;8.252;2023-12-29T10:47:52;3.70;;;1.00;;
37407;SDS011;24866;50.248;8.252;2023-12-29T10:50:22;2.20;;;0.85;;
37407;SDS011;24866;50.248;8.252;2023-12-29T10:52:53;1.92;;;0.80;;
37407;SDS011;24866;50.248;8.252;2023-12-29T10:55:40;2.97;;;0.60;;
37407;SDS011;24866;50.248;8.252;2023-12-29T10:58:11;2.53;;;0.90;;
37407;SDS011;24866;50.248;8.252;2023-12-29T11:00:44;3.08;;;0.55;;
37407;SDS011;24866;50.248;8.252;2023-12-29T11:03:14;4.63;;;2.03;;
37407;SDS011;24866;50.248;8.252;2023-12-29T11:05:45;6.75;;;3.50;;
37407;SDS011;24866;50.248;8.252;2023-12-29T11:08:15;1.35;;;0.50;;
37407;SDS011;24866;50.248;8.252;2023-12-29T11:10:47;2.33;;;1.05;;
37407;SDS011;24866;50.248;8.252;2023-12-29T11:13:19;2.33;;;0.60;;
37407;SDS011;24866;50.248;8.252;2023-12-29T11:15:50;2.42;;;0.52;;
37407;SDS011;24866;50.248;8.252;2023-12-29T11:18:21;1.00;;;0.28;;
37407;SDS011;24866;50.248;8.252;2023-12-29T11:20:52;1.90;;;0.30;;
37407;SDS011;24866;50.248;8.252;2023-12-29T11:23:22;2.05;;;0.40;;
37407;SDS011;24866;50.248;8.252;2023-12-29T11:25:52;0.93;;;0.30;;
37407;SDS011;24866;50.248;8.252;2023-12-29T11:28:23;2.58;;;0.73;;
37407;SDS011;24866;50.248;8.252;2023-12-29T11:30:55;3.10;;;0.32;;
37407;SDS011;24866;50.248;8.252;2023-12-29T11:33:25;3.65;;;0.40;;
37407;SDS011;24866;50.248;8.252;2023-12-29T11:36:02;1.65;;;0.30;;
37407;SDS011;24866;50.248;8.252;2023-12-29T11:38:41;0.50;;;0.20;;
37407;SDS011;24866;50.248;8.252;2023-12-29T11:41:21;0.25;;;0.10;;
37407;SDS011;24866;50.248;8.252;2023-12-29T11:43:58;0.22;;;0.10;;
37407;SDS011;24866;50.248;8.252;2023-12-29T11:49:03;2.58;;;0.80;;
37407;SDS011;24866;50.248;8.252;2023-12-29T11:51:34;1.50;;;0.25;;
37407;SDS011;24866;50.248;8.252;2023-12-29T11:54:04;0.80;;;0.40;;
37407;SDS011;24866;50.248;8.252;2023-12-29T11:56:36;2.88;;;0.63;;
37407;SDS011;24866;50.248;8.252;2023-12-29T11:59:19;3.33;;;0.30;;
37407;SDS011;24866;50.248;8.252;2023-12-29T12:01:51;3.83;;;0.30;;
37407;SDS011;24866;50.248;8.252;2023-12-29T12:04:34;1.00;;;0.25;;
37407;SDS011;24866;50.248;8.252;2023-12-29T12:07:13;1.00;;;0.30;;
37407;SDS011;24866;50.248;8.252;2023-12-29T12:09:44;1.27;;;0.30;;
37407;SDS011;24866;50.248;8.252;2023-12-29T12:18:05;0.75;;;0.20;;
37407;SDS011;24866;50.248;8.252;2023-12-29T12:20:37;0.88;;;0.20;;
37407;SDS011;24866;50.248;8.252;2023-12-29T12:23:10;0.82;;;0.20;;
37407;SDS011;24866;50.248;8.252;2023-12-29T12:25:46;2.97;;;0.40;;
37407;SDS011;24866;50.248;8.252;2023-12-29T12:28:15;1.33;;;0.10;;
37407;SDS011;24866;50.248;8.252;2023-12-29T12:30:47;0.55;;;0.17;;
37407;SDS011;24866;50.248;8.252;2023-12-29T12:33:17;2.50;;;0.22;;
37407;SDS011;24866;50.248;8.252;2023-12-29T12:35:53;1.98;;;0.20;;
37407;SDS011;24866;50.248;8.252;2023-12-29T12:38:28;1.08;;;0.25;;
37407;SDS011;24866;50.248;8.252;2023-12-29T12:41:09;1.70;;;0.30;;
37407;SDS011;24866;50.248;8.252;2023-12-29T12:43:40;3.75;;;0.60;;
37407;SDS011;24866;50.248;8.252;2023-12-29T12:46:15;2.13;;;0.32;;
37407;SDS011;24866;50.248;8.252;2023-12-29T12:48:45;2.87;;;0.30;;
37407;SDS011;24866;50.248;8.252;2023-12-29T12:51:16;0.20;;;0.15;;
37407;SDS011;24866;50.248;8.252;2023-12-29T12:53:49;0.90;;;0.20;;
37407;SDS011;24866;50.248;8.252;2023-12-29T12:56:20;1.20;;;0.43;;
37407;SDS011;24866;50.248;8.252;2023-12-29T12:58:50;0.30;;;0.10;;
37407;SDS011;24866;50.248;8.252;2023-12-29T13:01:21;0.95;;;0.10;;
37407;SDS011;24866;50.248;8.252;2023-12-29T13:03:52;0.52;;;0.22;;
37407;SDS011;24866;50.248;8.252;2023-12-29T13:06:22;1.55;;;0.40;;
37407;SDS011;24866;50.248;8.252;2023-12-29T13:08:52;1.77;;;0.30;;
37407;SDS011;24866;50.248;8.252;2023-12-29T13:11:22;0.50;;;0.10;;
37407;SDS011;24866;50.248;8.252;2023-12-29T13:13:53;1.40;;;0.30;;
37407;SDS011;24866;50.248;8.252;2023-12-29T13:16:29;2.03;;;0.40;;
37407;SDS011;24866;50.248;8.252;2023-12-29T13:19:14;1.98;;;0.50;;
37407;SDS011;24866;50.248;8.252;2023-12-29T13:21:47;2.45;;;0.88;;
37407;SDS011;24866;50.248;8.252;2023-12-29T13:24:17;1.92;;;0.25;;
37407;SDS011;24866;50.248;8.252;2023-12-29T13:26:47;2.17;;;0.80;;
37407;SDS011;24866;50.248;8.252;2023-12-29T13:29:21;1.88;;;0.40;;
37407;SDS011;24866;50.248;8.252;2023-12-29T13:31:55;2.72;;;0.90;;
37407;SDS011;24866;50.248;8.252;2023-12-29T13:34:30;1.02;;;0.45;;
37407;SDS011;24866;50.248;8.252;2023-12-29T13:37:08;2.60;;;0.47;;
37407;SDS011;24866;50.248;8.252;2023-12-29T13:39:49;0.88;;;0.20;;
37407;SDS011;24866;50.248;8.252;2023-12-29T13:42:23;1.35;;;0.40;;
37407;SDS011;24866;50.248;8.252;2023-12-29T13:44:57;1.65;;;0.77;;
37407;SDS011;24866;50.248;8.252;2023-12-29T13:47:30;2.22;;;0.70;;
37407;SDS011;24866;50.248;8.252;2023-12-29T13:50:01;2.42;;;0.80;;
37407;SDS011;24866;50.248;8.252;2023-12-29T13:52:31;2.85;;;0.55;;
37407;SDS011;24866;50.248;8.252;2023-12-29T13:55:04;1.58;;;0.50;;
37407;SDS011;24866;50.248;8.252;2023-12-29T13:57:35;2.80;;;0.80;;
37407;SDS011;24866;50.248;8.252;2023-12-29T14:00:15;1.95;;;0.65;;
37407;SDS011;24866;50.248;8.252;2023-12-29T14:02:56;0.40;;;0.20;;
37407;SDS011;24866;50.248;8.252;2023-12-29T14:05:31;1.98;;;0.50;;
37407;SDS011;24866;50.248;8.252;2023-12-29T14:08:06;1.85;;;0.60;;
37407;SDS011;24866;50.248;8.252;2023-12-29T14:10:39;4.43;;;0.40;;
37407;SDS011;24866;50.248;8.252;2023-12-29T14:13:09;0.70;;;0.30;;
37407;SDS011;24866;50.248;8.252;2023-12-29T14:15:42;1.95;;;0.75;;
37407;SDS011;24866;50.248;8.252;2023-12-29T14:18:18;2.03;;;0.50;;
37407;SDS011;24866;50.248;8.252;2023-12-29T14:21:19;2.58;;;0.47;;
37407;SDS011;24866;50.248;8.252;2023-12-29T14:24:07;1.10;;;0.20;;
37407;SDS011;24866;50.248;8.252;2023-12-29T14:26:38;1.33;;;0.32;;
37407;SDS011;24866;50.248;8.252;2023-12-29T14:29:10;2.38;;;0.63;;
37407;SDS011;24866;50.248;8.252;2023-12-29T14:31:41;1.23;;;0.40;;
37407;SDS011;24866;50.248;8.252;2023-12-29T14:34:13;1.30;;;0.43;;
37407;SDS011;24866;50.248;8.252;2023-12-29T14:36:43;0.52;;;0.20;;
37407;SDS011;24866;50.248;8.252;2023-12-29T14:39:14;1.00;;;0.30;;
37407;SDS011;24866;50.248;8.252;2023-12-29T14:41:44;1.65;;;0.22;;
37407;SDS011;24866;50.248;8.252;2023-12-29T14:44:14;1.23;;;0.20;;
37407;SDS011;24866;50.248;8.252;2023-12-29T14:46:44;0.52;;;0.10;;
37407;SDS011;24866;50.248;8.252;2023-12-29T14:49:16;1.73;;;0.43;;
37407;SDS011;24866;50.248;8.252;2023-12-29T14:51:45;1.63;;;0.40;;
37407;SDS011;24866;50.248;8.252;2023-12-29T14:54:15;2.92;;;0.90;;
37407;SDS011;24866;50.248;8.252;2023-12-29T14:56:45;1.48;;;0.60;;
37407;SDS011;24866;50.248;8.252;2023-12-29T14:59:15;5.80;;;1.27;;
37407;SDS011;24866;50.248;8.252;2023-12-29T15:01:45;3.60;;;1.60;;
37407;SDS011;24866;50.248;8.252;2023-12-29T15:04:16;3.42;;;1.27;;
37407;SDS011;24866;50.248;8.252;2023-12-29T15:06:46;2.63;;;0.50;;
37407;SDS011;24866;50.248;8.252;2023-12-29T15:09:17;2.75;;;0.43;;
37407;SDS011;24866;50.248;8.252;2023-12-29T15:11:48;4.82;;;0.98;;
37407;SDS011;24866;50.248;8.252;2023-12-29T15:14:20;3.38;;;1.00;;
37407;SDS011;24866;50.248;8.252;2023-12-29T15:16:50;4.07;;;0.80;;
37407;SDS011;24866;50.248;8.252;2023-12-29T15:19:22;5.43;;;1.33;;
37407;SDS011;24866;50.248;8.252;2023-12-29T15:21:52;2.92;;;0.43;;
37407;SDS011;24866;50.248;8.252;2023-12-29T15:24:22;2.80;;;0.50;;